Due to severe server failure at the provider, not all demo sites are operational. Will take some days to rebuilt everything.

Demonstration site - Click on the  for more information

This is an optional block. Switch it on/off in your settings-file: $SITE['bannerTop'] = false; or $SITE['bannerBottom'] = false;

You can display ads, any other important text or photo’s using text / html or PHP code.

You can place one or more at the top and or bottom and it can all be different for content / size .



Visit our other weather sites:

Template documentation
and downloads

And another site



Nearby METAR Reports

   
EBAW - Antwerp
Updated: 23-08-2019 21:20
Clear  
Clear  
   Wind: NE 9.3 km/h
Wind: NE 9.3 km/h
Temperature: 22°C
Dew Point: 13°C
Humidity: 57%
Barometer: 1023 hPa
Visibility: More than 10 km
Cloud details: Clear ft
EBAW 231920Z 05005KT CAVOK 22/13 Q1023 NOSIG
EBLG - Liège
Updated: 23-08-2019 21:20
Clear  
Clear  
   Wind: NE 11.1 km/h
Wind: NE 11.1 km/h
Temperature: 20°C
Dew Point: 11°C
Humidity: 56%
Barometer: 1023 hPa
Visibility: More than 10 km
Cloud details: Clear ft
EBLG 231920Z 04006KT CAVOK 20/11 Q1023 NOSIG
EBCV - Mons/Bergen
Updated: 23-08-2019 21:25
Clear  
Clear  
   Wind: NE 7.4 km/h
Wind: NE 7.4 km/h
Temperature: 20°C
Dew Point: 14°C
Humidity: 69%
Barometer: 1023 hPa
Clouds: Clear
Visibility: More than 10 km
Cloud details: Clear ft
EBCV 231925Z AUTO 05004KT 9999 NCD 20/14 Q1023 BLU
EHBK - Maastricht
Updated: 23-08-2019 21:25
Partly Cloudy  
Partly Cloudy  
   Wind: NE 13 km/h
Wind: NE 13 km/h
Temperature: 21°C
Dew Point: 13°C
Humidity: 60%
Barometer: 1023 hPa
Clouds: Partly Cloudy
Visibility: More than 10 km
Cloud details: Partly Cloudy ft
EHBK 231925Z AUTO 05007KT 9999 NSC 21/13 Q1023 NOSIG
ELLX - Luxemburg
Updated: 23-08-2019 21:20
Clear  
Clear  
   Wind: ENE 11.1 km/h
Wind: ENE 11.1 km/h
Temperature: 24°C
Dew Point: 8°C
Humidity: 36%
Barometer: 1023 hPa
Visibility: More than 10 km
Cloud details: Clear ft
ELLX 231920Z 07006KT CAVOK 24/08 Q1023 NOSIG
EBOS - Oostende
Updated: 23-08-2019 21:20
Clear  
Clear  
   Wind: NE 13 km/h
Wind: NE 13 km/h
Temperature: 19°C
Dew Point: 14°C
Humidity: 73%
Barometer: 1023 hPa
Visibility: More than 10 km
Cloud details: Clear ft
EBOS 231920Z 05007KT CAVOK 19/14 Q1023 NOSIG

Script developed by  Saratoga-weather.org Adapted for the template by  Weerstation Leuven

This is an optional block. Switch it on/off in your settings-file: $SITE['bannerTop'] = false; or $SITE['bannerBottom'] = false;

You can display ads, any other important text or photo’s using text / html or PHP code.

You can place one or more at the top and or bottom and it can all be different for content / size .